الصفحة الرئيسية
METAR-TAF:

METAR-TAF

مطار :

مطار تايوان تاويوان الدولي

تايبيه, تايوان

دائرة عرض: 25-05N, خط طول: 121-13E, ارتفاع: 33 متر

مراقبة الطقس الحالي

تاريخ ووقت الإصدار 22 دقيقة قبل الساعة 07:30UTC
ريح 18 عقدة من الشرق/الشمال الشرقي تتزايد حتى 29 عقدة
درجة الحرارة 27°درجة مئوية
الرطوبة 58%
ضغط 1013 hPa
الرؤية 10 كم أو أكثر
غيوم قليلة على ارتفاع 2000 قدم

METAR: RCTP 250730Z 06018G29KT 9999 FEW020 27/18 Q1013 NOSIG RMK A2992

زمن: 15:52 (07:52 UTC)

توقعات

تاريخ ووقت الإصدار 2ساعات و 52 دقيقة قبل الساعة 05:00UTC
التوقعات صالحة من25 الساعة 06 UTC إلى 26 الساعة 12 UTC
ريح 15 عقدة من الشرق/الشمال الشرقي
الرؤية 10 كم أو أكثر
غيوم قليلة على ارتفاع 1500 قدم
غيوم مفككة على ارتفاع 5000 قدم
مؤقت
من 25 الساعة 06 UTC إلى 25 الساعة 12 UTC
ريح 20 عقدة من الشمال الشرقي تتزايد حتى 30 عقدة
مؤقت
من 26 الساعة 03 UTC إلى 26 الساعة 09 UTC
ريح 20 عقدة من الشرق/الشمال الشرقي تتزايد حتى 30 عقدة

TAF: RCTP 250500Z 2506/2612 06015KT 9999 FEW015 BKN050 TEMPO 2506/2512 05020G30KT TEMPO 2603/2609 06020G30KT

أرصاد الطقس والتوقعات من أكثر من 4000 مطار (تقارير الطقس للمطار METAR والتنبؤ بالطقس بالمطارTAF).

المحطات المتاحة هي النقط الصفراء والحمراء على الخريطة.

حرك المؤشر فوق النقطة لمعرفة اسم المحطة.

ثم انقر لمعرفة أرصاد وتوقعات الطقس.

لتغيير الخارطة: اضغط على الأزرار الخضراء مع رمز الصليب الأسود للتكبير. على الزر الأخضر مع شرطة للتصغير، أو على الأسهم الخضراء للخرائط المجاورة.


METAR-TAF: